sensor_id;sensor_type;location;lat;lon;timestamp;temperature;humidity
13591;DHT22;6866;50.778;7.206;2023-06-19T00:00:07;21.40;96.40
13591;DHT22;6866;50.778;7.206;2023-06-19T00:02:39;21.50;95.80
13591;DHT22;6866;50.778;7.206;2023-06-19T00:05:05;21.60;95.50
13591;DHT22;6866;50.778;7.206;2023-06-19T00:07:30;21.50;95.50
13591;DHT22;6866;50.778;7.206;2023-06-19T00:09:56;21.60;95.30
13591;DHT22;6866;50.778;7.206;2023-06-19T00:12:21;21.50;95.50
13591;DHT22;6866;50.778;7.206;2023-06-19T00:14:47;21.50;95.60
13591;DHT22;6866;50.778;7.206;2023-06-19T00:17:12;21.40;95.70
13591;DHT22;6866;50.778;7.206;2023-06-19T00:19:42;21.50;95.50
13591;DHT22;6866;50.778;7.206;2023-06-19T00:22:08;21.50;96.00
13591;DHT22;6866;50.778;7.206;2023-06-19T00:24:33;21.40;96.00
13591;DHT22;6866;50.778;7.206;2023-06-19T00:26:59;21.40;96.70
13591;DHT22;6866;50.778;7.206;2023-06-19T00:29:29;21.30;96.80
13591;DHT22;6866;50.778;7.206;2023-06-19T00:31:54;21.20;97.40
13591;DHT22;6866;50.778;7.206;2023-06-19T00:34:20;21.10;97.90
13591;DHT22;6866;50.778;7.206;2023-06-19T00:36:46;21.00;98.20
13591;DHT22;6866;50.778;7.206;2023-06-19T00:39:12;21.10;98.00
13591;DHT22;6866;50.778;7.206;2023-06-19T00:41:38;21.10;98.10
13591;DHT22;6866;50.778;7.206;2023-06-19T00:44:04;21.00;98.20
13591;DHT22;6866;50.778;7.206;2023-06-19T00:46:30;21.00;98.40
13591;DHT22;6866;50.778;7.206;2023-06-19T00:48:57;21.10;97.90
13591;DHT22;6866;50.778;7.206;2023-06-19T00:51:22;21.10;97.10
13591;DHT22;6866;50.778;7.206;2023-06-19T00:53:48;21.20;97.10
13591;DHT22;6866;50.778;7.206;2023-06-19T00:56:13;21.20;96.40
13591;DHT22;6866;50.778;7.206;2023-06-19T00:58:41;21.30;96.10
13591;DHT22;6866;50.778;7.206;2023-06-19T01:03:41;21.30;95.20
13591;DHT22;6866;50.778;7.206;2023-06-19T01:06:12;21.40;95.00
13591;DHT22;6866;50.778;7.206;2023-06-19T01:08:44;21.40;95.00
13591;DHT22;6866;50.778;7.206;2023-06-19T01:11:13;21.50;95.50
13591;DHT22;6866;50.778;7.206;2023-06-19T01:13:55;21.50;95.20
13591;DHT22;6866;50.778;7.206;2023-06-19T01:16:23;21.50;95.10
13591;DHT22;6866;50.778;7.206;2023-06-19T01:18:50;21.40;96.00
13591;DHT22;6866;50.778;7.206;2023-06-19T01:21:17;21.40;94.60
13591;DHT22;6866;50.778;7.206;2023-06-19T01:23:43;21.50;95.10
13591;DHT22;6866;50.778;7.206;2023-06-19T01:26:09;21.50;95.60
13591;DHT22;6866;50.778;7.206;2023-06-19T01:28:36;21.20;95.70
13591;DHT22;6866;50.778;7.206;2023-06-19T01:31:48;21.40;95.30
13591;DHT22;6866;50.778;7.206;2023-06-19T01:33:54;21.50;95.10
13591;DHT22;6866;50.778;7.206;2023-06-19T01:36:20;21.50;95.10
13591;DHT22;6866;50.778;7.206;2023-06-19T01:38:48;21.50;95.20
13591;DHT22;6866;50.778;7.206;2023-06-19T01:41:14;21.40;95.50
13591;DHT22;6866;50.778;7.206;2023-06-19T01:43:40;21.40;95.00
13591;DHT22;6866;50.778;7.206;2023-06-19T01:46:06;21.40;95.00
13591;DHT22;6866;50.778;7.206;2023-06-19T01:48:35;21.40;94.80
13591;DHT22;6866;50.778;7.206;2023-06-19T01:51:00;21.40;94.60
13591;DHT22;6866;50.778;7.206;2023-06-19T01:53:30;21.40;95.50
13591;DHT22;6866;50.778;7.206;2023-06-19T01:55:55;21.30;95.40
13591;DHT22;6866;50.778;7.206;2023-06-19T01:58:21;21.20;95.70
13591;DHT22;6866;50.778;7.206;2023-06-19T02:00:47;21.20;96.10
13591;DHT22;6866;50.778;7.206;2023-06-19T02:03:12;21.20;95.60
13591;DHT22;6866;50.778;7.206;2023-06-19T02:05:38;21.20;95.60
13591;DHT22;6866;50.778;7.206;2023-06-19T02:08:05;21.20;95.50
13591;DHT22;6866;50.778;7.206;2023-06-19T02:10:31;21.10;96.60
13591;DHT22;6866;50.778;7.206;2023-06-19T02:12:57;21.10;96.60
13591;DHT22;6866;50.778;7.206;2023-06-19T02:15:23;21.10;97.20
13591;DHT22;6866;50.778;7.206;2023-06-19T02:17:48;21.20;96.90
13591;DHT22;6866;50.778;7.206;2023-06-19T02:20:14;21.20;96.30
13591;DHT22;6866;50.778;7.206;2023-06-19T02:22:40;21.10;96.40
13591;DHT22;6866;50.778;7.206;2023-06-19T02:25:06;21.00;96.70
13591;DHT22;6866;50.778;7.206;2023-06-19T02:27:32;21.00;96.60
13591;DHT22;6866;50.778;7.206;2023-06-19T02:29:58;21.00;96.70
13591;DHT22;6866;50.778;7.206;2023-06-19T02:32:23;21.00;96.70
13591;DHT22;6866;50.778;7.206;2023-06-19T02:34:49;20.90;96.90
13591;DHT22;6866;50.778;7.206;2023-06-19T02:37:14;21.00;96.80
13591;DHT22;6866;50.778;7.206;2023-06-19T02:39:40;20.90;96.80
13591;DHT22;6866;50.778;7.206;2023-06-19T02:42:06;20.90;97.60
13591;DHT22;6866;50.778;7.206;2023-06-19T02:44:31;20.80;97.70
13591;DHT22;6866;50.778;7.206;2023-06-19T02:46:57;20.90;97.00
13591;DHT22;6866;50.778;7.206;2023-06-19T02:49:23;20.90;97.20
13591;DHT22;6866;50.778;7.206;2023-06-19T02:51:48;20.80;97.20
13591;DHT22;6866;50.778;7.206;2023-06-19T02:54:14;20.80;97.40
13591;DHT22;6866;50.778;7.206;2023-06-19T02:56:39;20.80;97.40
13591;DHT22;6866;50.778;7.206;2023-06-19T02:59:05;20.80;97.60
13591;DHT22;6866;50.778;7.206;2023-06-19T03:01:30;20.80;97.40
13591;DHT22;6866;50.778;7.206;2023-06-19T03:03:56;20.70;97.50
13591;DHT22;6866;50.778;7.206;2023-06-19T03:06:22;20.60;97.80
13591;DHT22;6866;50.778;7.206;2023-06-19T03:08:47;20.60;98.10
13591;DHT22;6866;50.778;7.206;2023-06-19T03:11:13;20.60;98.10
13591;DHT22;6866;50.778;7.206;2023-06-19T03:16:11;20.60;97.90
13591;DHT22;6866;50.778;7.206;2023-06-19T03:18:36;20.60;97.00
13591;DHT22;6866;50.778;7.206;2023-06-19T03:21:02;20.60;97.10
13591;DHT22;6866;50.778;7.206;2023-06-19T03:23:27;20.50;97.50
13591;DHT22;6866;50.778;7.206;2023-06-19T03:25:53;20.30;97.50
13591;DHT22;6866;50.778;7.206;2023-06-19T03:28:18;20.50;97.40
13591;DHT22;6866;50.778;7.206;2023-06-19T03:30:44;20.50;97.40
13591;DHT22;6866;50.778;7.206;2023-06-19T03:33:09;20.50;97.30
13591;DHT22;6866;50.778;7.206;2023-06-19T03:35:35;20.50;97.80
13591;DHT22;6866;50.778;7.206;2023-06-19T03:38:00;20.40;98.10
13591;DHT22;6866;50.778;7.206;2023-06-19T03:40:25;20.40;97.90
13591;DHT22;6866;50.778;7.206;2023-06-19T03:42:51;20.40;97.90
13591;DHT22;6866;50.778;7.206;2023-06-19T03:45:17;20.30;98.00
13591;DHT22;6866;50.778;7.206;2023-06-19T03:47:42;20.40;97.80
13591;DHT22;6866;50.778;7.206;2023-06-19T03:50:08;20.40;97.70
13591;DHT22;6866;50.778;7.206;2023-06-19T03:52:36;20.30;97.90
13591;DHT22;6866;50.778;7.206;2023-06-19T03:55:02;20.40;98.20
13591;DHT22;6866;50.778;7.206;2023-06-19T03:57:28;20.40;98.30
13591;DHT22;6866;50.778;7.206;2023-06-19T03:59:53;20.40;98.30
13591;DHT22;6866;50.778;7.206;2023-06-19T04:02:19;20.40;98.10
13591;DHT22;6866;50.778;7.206;2023-06-19T04:04:45;20.40;97.70
13591;DHT22;6866;50.778;7.206;2023-06-19T04:07:10;20.50;97.50
13591;DHT22;6866;50.778;7.206;2023-06-19T04:09:36;20.50;98.00
13591;DHT22;6866;50.778;7.206;2023-06-19T04:12:01;20.60;97.80
13591;DHT22;6866;50.778;7.206;2023-06-19T04:14:27;20.60;97.40
13591;DHT22;6866;50.778;7.206;2023-06-19T04:16:52;20.70;97.10
13591;DHT22;6866;50.778;7.206;2023-06-19T04:19:18;20.80;95.70
13591;DHT22;6866;50.778;7.206;2023-06-19T04:21:43;21.00;95.00
13591;DHT22;6866;50.778;7.206;2023-06-19T04:24:09;21.10;94.40
13591;DHT22;6866;50.778;7.206;2023-06-19T04:26:35;21.20;93.10
13591;DHT22;6866;50.778;7.206;2023-06-19T04:29:02;21.40;92.50
13591;DHT22;6866;50.778;7.206;2023-06-19T04:31:27;21.50;91.90
13591;DHT22;6866;50.778;7.206;2023-06-19T04:33:54;21.60;91.60
13591;DHT22;6866;50.778;7.206;2023-06-19T04:36:22;21.70;91.50
13591;DHT22;6866;50.778;7.206;2023-06-19T04:38:48;21.70;90.90
13591;DHT22;6866;50.778;7.206;2023-06-19T04:41:13;21.80;90.10
13591;DHT22;6866;50.778;7.206;2023-06-19T04:43:39;21.90;90.00
13591;DHT22;6866;50.778;7.206;2023-06-19T04:46:07;21.90;88.80
13591;DHT22;6866;50.778;7.206;2023-06-19T04:48:32;21.90;88.70
13591;DHT22;6866;50.778;7.206;2023-06-19T04:51:01;21.90;87.90
13591;DHT22;6866;50.778;7.206;2023-06-19T04:53:27;22.00;88.00
13591;DHT22;6866;50.778;7.206;2023-06-19T04:55:53;22.00;87.40
13591;DHT22;6866;50.778;7.206;2023-06-19T04:58:23;22.00;86.80
13591;DHT22;6866;50.778;7.206;2023-06-19T05:00:48;22.00;86.80
13591;DHT22;6866;50.778;7.206;2023-06-19T05:03:17;22.00;87.10
13591;DHT22;6866;50.778;7.206;2023-06-19T05:05:43;22.10;87.20
13591;DHT22;6866;50.778;7.206;2023-06-19T05:08:09;22.00;87.10
13591;DHT22;6866;50.778;7.206;2023-06-19T05:10:35;22.00;87.00
13591;DHT22;6866;50.778;7.206;2023-06-19T05:13:00;22.10;86.50
13591;DHT22;6866;50.778;7.206;2023-06-19T05:15:27;22.10;86.80
13591;DHT22;6866;50.778;7.206;2023-06-19T05:17:53;22.10;86.90
13591;DHT22;6866;50.778;7.206;2023-06-19T05:20:19;22.00;87.10
13591;DHT22;6866;50.778;7.206;2023-06-19T05:22:45;22.00;87.30
13591;DHT22;6866;50.778;7.206;2023-06-19T05:25:10;22.20;88.00
13591;DHT22;6866;50.778;7.206;2023-06-19T05:27:36;22.20;87.80
13591;DHT22;6866;50.778;7.206;2023-06-19T05:30:01;22.30;87.00
13591;DHT22;6866;50.778;7.206;2023-06-19T05:32:27;22.30;87.40
13591;DHT22;6866;50.778;7.206;2023-06-19T05:34:53;22.30;87.50
13591;DHT22;6866;50.778;7.206;2023-06-19T05:37:18;22.20;88.40
13591;DHT22;6866;50.778;7.206;2023-06-19T05:39:44;22.20;88.20
13591;DHT22;6866;50.778;7.206;2023-06-19T05:42:09;22.20;88.40
13591;DHT22;6866;50.778;7.206;2023-06-19T05:44:35;22.70;88.10
13591;DHT22;6866;50.778;7.206;2023-06-19T05:47:01;25.40;77.40
13591;DHT22;6866;50.778;7.206;2023-06-19T05:49:26;27.30;66.00
13591;DHT22;6866;50.778;7.206;2023-06-19T05:51:52;27.40;62.90
13591;DHT22;6866;50.778;7.206;2023-06-19T05:54:17;27.40;61.10
13591;DHT22;6866;50.778;7.206;2023-06-19T05:56:43;28.50;60.10
13591;DHT22;6866;50.778;7.206;2023-06-19T05:59:08;29.10;56.90
13591;DHT22;6866;50.778;7.206;2023-06-19T06:01:34;29.40;56.70
13591;DHT22;6866;50.778;7.206;2023-06-19T06:04:00;29.90;54.40
13591;DHT22;6866;50.778;7.206;2023-06-19T06:06:26;30.70;52.50
13591;DHT22;6866;50.778;7.206;2023-06-19T06:08:53;30.50;51.50
13591;DHT22;6866;50.778;7.206;2023-06-19T06:11:20;30.40;50.30
13591;DHT22;6866;50.778;7.206;2023-06-19T06:13:45;30.70;50.90
13591;DHT22;6866;50.778;7.206;2023-06-19T06:16:11;31.50;49.30
13591;DHT22;6866;50.778;7.206;2023-06-19T06:18:36;30.30;49.50
13591;DHT22;6866;50.778;7.206;2023-06-19T06:21:02;30.50;49.50
13591;DHT22;6866;50.778;7.206;2023-06-19T06:23:28;30.20;49.80
13591;DHT22;6866;50.778;7.206;2023-06-19T06:25:53;30.60;50.30
13591;DHT22;6866;50.778;7.206;2023-06-19T06:28:22;29.20;50.50
13591;DHT22;6866;50.778;7.206;2023-06-19T06:30:47;29.10;54.30
13591;DHT22;6866;50.778;7.206;2023-06-19T06:33:13;30.10;51.00
13591;DHT22;6866;50.778;7.206;2023-06-19T06:35:39;28.10;52.70
13591;DHT22;6866;50.778;7.206;2023-06-19T06:38:04;28.30;52.10
13591;DHT22;6866;50.778;7.206;2023-06-19T06:40:30;27.50;55.20
13591;DHT22;6866;50.778;7.206;2023-06-19T06:42:55;27.20;56.80
13591;DHT22;6866;50.778;7.206;2023-06-19T06:45:21;26.70;58.50
13591;DHT22;6866;50.778;7.206;2023-06-19T06:47:47;26.20;59.40
13591;DHT22;6866;50.778;7.206;2023-06-19T06:50:12;25.80;60.80
13591;DHT22;6866;50.778;7.206;2023-06-19T06:52:38;25.50;61.80
13591;DHT22;6866;50.778;7.206;2023-06-19T06:55:04;25.30;62.70
13591;DHT22;6866;50.778;7.206;2023-06-19T06:57:30;25.10;63.50
13591;DHT22;6866;50.778;7.206;2023-06-19T06:59:55;24.80;64.60
13591;DHT22;6866;50.778;7.206;2023-06-19T07:02:21;24.80;64.90
13591;DHT22;6866;50.778;7.206;2023-06-19T07:04:46;24.70;65.40
13591;DHT22;6866;50.778;7.206;2023-06-19T07:07:12;24.80;65.70
13591;DHT22;6866;50.778;7.206;2023-06-19T07:09:38;24.80;66.10
13591;DHT22;6866;50.778;7.206;2023-06-19T07:12:03;27.30;63.10
13591;DHT22;6866;50.778;7.206;2023-06-19T07:14:30;29.50;55.40
13591;DHT22;6866;50.778;7.206;2023-06-19T07:16:55;30.80;51.30
13591;DHT22;6866;50.778;7.206;2023-06-19T07:19:21;31.20;49.60
13591;DHT22;6866;50.778;7.206;2023-06-19T07:21:46;30.80;47.70
13591;DHT22;6866;50.778;7.206;2023-06-19T07:24:12;30.00;49.50
13591;DHT22;6866;50.778;7.206;2023-06-19T07:26:37;29.40;50.70
13591;DHT22;6866;50.778;7.206;2023-06-19T07:29:03;28.50;52.40
13591;DHT22;6866;50.778;7.206;2023-06-19T07:31:28;27.90;54.70
13591;DHT22;6866;50.778;7.206;2023-06-19T07:33:54;28.30;54.30
13591;DHT22;6866;50.778;7.206;2023-06-19T07:36:19;28.90;52.10
13591;DHT22;6866;50.778;7.206;2023-06-19T07:38:46;28.80;52.10
13591;DHT22;6866;50.778;7.206;2023-06-19T07:41:11;28.40;53.00
13591;DHT22;6866;50.778;7.206;2023-06-19T07:43:38;28.60;52.50
13591;DHT22;6866;50.778;7.206;2023-06-19T07:46:03;27.90;54.30
13591;DHT22;6866;50.778;7.206;2023-06-19T07:48:29;27.80;54.30
13591;DHT22;6866;50.778;7.206;2023-06-19T07:50:54;27.50;55.80
13591;DHT22;6866;50.778;7.206;2023-06-19T07:53:20;27.20;56.70
13591;DHT22;6866;50.778;7.206;2023-06-19T07:55:46;27.20;56.00
13591;DHT22;6866;50.778;7.206;2023-06-19T07:58:11;27.10;55.60
13591;DHT22;6866;50.778;7.206;2023-06-19T08:00:37;27.60;54.50
13591;DHT22;6866;50.778;7.206;2023-06-19T08:03:02;27.60;55.40
13591;DHT22;6866;50.778;7.206;2023-06-19T08:05:28;28.70;52.60
13591;DHT22;6866;50.778;7.206;2023-06-19T08:07:55;28.80;51.70
13591;DHT22;6866;50.778;7.206;2023-06-19T08:10:21;28.50;51.80
13591;DHT22;6866;50.778;7.206;2023-06-19T08:12:46;28.40;52.00
13591;DHT22;6866;50.778;7.206;2023-06-19T08:15:12;28.30;52.30
13591;DHT22;6866;50.778;7.206;2023-06-19T08:17:39;28.10;52.80
13591;DHT22;6866;50.778;7.206;2023-06-19T08:20:05;27.50;52.90
13591;DHT22;6866;50.778;7.206;2023-06-19T08:22:31;27.40;53.50
13591;DHT22;6866;50.778;7.206;2023-06-19T08:24:57;27.10;53.20
13591;DHT22;6866;50.778;7.206;2023-06-19T08:27:22;27.70;52.60
13591;DHT22;6866;50.778;7.206;2023-06-19T08:29:48;28.80;48.60
13591;DHT22;6866;50.778;7.206;2023-06-19T08:32:13;29.60;46.60
13591;DHT22;6866;50.778;7.206;2023-06-19T08:34:39;29.30;46.90
13591;DHT22;6866;50.778;7.206;2023-06-19T08:37:05;29.30;47.70
13591;DHT22;6866;50.778;7.206;2023-06-19T08:39:31;29.40;46.10
13591;DHT22;6866;50.778;7.206;2023-06-19T08:41:57;30.50;44.30
13591;DHT22;6866;50.778;7.206;2023-06-19T08:44:22;30.70;42.70
13591;DHT22;6866;50.778;7.206;2023-06-19T08:46:48;30.90;42.10
13591;DHT22;6866;50.778;7.206;2023-06-19T08:49:13;30.70;42.50
13591;DHT22;6866;50.778;7.206;2023-06-19T08:51:40;30.10;43.30
13591;DHT22;6866;50.778;7.206;2023-06-19T08:54:07;29.80;43.00
13591;DHT22;6866;50.778;7.206;2023-06-19T08:56:34;29.10;44.40
13591;DHT22;6866;50.778;7.206;2023-06-19T08:59:16;29.00;44.60
13591;DHT22;6866;50.778;7.206;2023-06-19T09:01:53;29.10;45.50
13591;DHT22;6866;50.778;7.206;2023-06-19T09:04:20;30.00;43.50
13591;DHT22;6866;50.778;7.206;2023-06-19T09:06:50;30.30;44.10
13591;DHT22;6866;50.778;7.206;2023-06-19T09:09:17;30.10;42.60
13591;DHT22;6866;50.778;7.206;2023-06-19T09:11:42;30.20;42.00
13591;DHT22;6866;50.778;7.206;2023-06-19T09:14:10;29.90;43.40
13591;DHT22;6866;50.778;7.206;2023-06-19T09:16:42;29.90;43.80
13591;DHT22;6866;50.778;7.206;2023-06-19T09:19:07;29.40;44.10
13591;DHT22;6866;50.778;7.206;2023-06-19T09:21:36;29.80;43.60
13591;DHT22;6866;50.778;7.206;2023-06-19T09:24:07;29.60;43.70
13591;DHT22;6866;50.778;7.206;2023-06-19T09:26:33;29.00;43.20
13591;DHT22;6866;50.778;7.206;2023-06-19T09:29:10;28.70;44.10
13591;DHT22;6866;50.778;7.206;2023-06-19T09:31:35;28.50;44.70
13591;DHT22;6866;50.778;7.206;2023-06-19T09:34:03;28.50;44.20
13591;DHT22;6866;50.778;7.206;2023-06-19T09:36:30;29.00;44.50
13591;DHT22;6866;50.778;7.206;2023-06-19T09:38:57;29.50;43.40
13591;DHT22;6866;50.778;7.206;2023-06-19T09:41:24;29.70;42.70
13591;DHT22;6866;50.778;7.206;2023-06-19T09:43:54;29.30;42.50
13591;DHT22;6866;50.778;7.206;2023-06-19T09:46:26;30.00;42.30
13591;DHT22;6866;50.778;7.206;2023-06-19T09:48:54;30.20;41.50
13591;DHT22;6866;50.778;7.206;2023-06-19T09:51:29;30.10;41.50
13591;DHT22;6866;50.778;7.206;2023-06-19T09:53:56;29.90;41.20
13591;DHT22;6866;50.778;7.206;2023-06-19T09:56:24;29.80;42.40
13591;DHT22;6866;50.778;7.206;2023-06-19T09:58:53;30.00;42.00
13591;DHT22;6866;50.778;7.206;2023-06-19T10:01:20;30.40;40.70
13591;DHT22;6866;50.778;7.206;2023-06-19T10:03:46;30.40;41.10
13591;DHT22;6866;50.778;7.206;2023-06-19T10:06:16;30.30;41.00
13591;DHT22;6866;50.778;7.206;2023-06-19T10:08:43;30.50;41.30
13591;DHT22;6866;50.778;7.206;2023-06-19T10:11:13;30.40;41.10
13591;DHT22;6866;50.778;7.206;2023-06-19T10:13:40;30.40;40.90
13591;DHT22;6866;50.778;7.206;2023-06-19T10:16:22;30.60;41.10
13591;DHT22;6866;50.778;7.206;2023-06-19T10:18:48;30.80;41.00
13591;DHT22;6866;50.778;7.206;2023-06-19T10:21:24;30.90;39.70
13591;DHT22;6866;50.778;7.206;2023-06-19T10:23:57;31.10;40.10
13591;DHT22;6866;50.778;7.206;2023-06-19T10:26:33;30.70;38.70
13591;DHT22;6866;50.778;7.206;2023-06-19T10:28:59;30.70;40.10
13591;DHT22;6866;50.778;7.206;2023-06-19T10:31:25;30.50;40.30
13591;DHT22;6866;50.778;7.206;2023-06-19T10:33:53;30.30;40.60
13591;DHT22;6866;50.778;7.206;2023-06-19T10:36:22;30.30;40.60
13591;DHT22;6866;50.778;7.206;2023-06-19T10:38:49;29.90;40.70
13591;DHT22;6866;50.778;7.206;2023-06-19T10:41:16;29.70;40.70
13591;DHT22;6866;50.778;7.206;2023-06-19T10:43:41;29.90;42.00
13591;DHT22;6866;50.778;7.206;2023-06-19T10:46:07;30.30;40.50
13591;DHT22;6866;50.778;7.206;2023-06-19T10:48:32;29.90;40.20
13591;DHT22;6866;50.778;7.206;2023-06-19T10:50:59;29.90;40.20
13591;DHT22;6866;50.778;7.206;2023-06-19T10:53:31;30.40;40.30
13591;DHT22;6866;50.778;7.206;2023-06-19T10:56:01;30.40;40.30
13591;DHT22;6866;50.778;7.206;2023-06-19T10:58:28;30.00;38.80
13591;DHT22;6866;50.778;7.206;2023-06-19T11:00:54;29.90;40.80
13591;DHT22;6866;50.778;7.206;2023-06-19T11:03:20;30.30;39.80
13591;DHT22;6866;50.778;7.206;2023-06-19T11:05:46;30.50;39.90
13591;DHT22;6866;50.778;7.206;2023-06-19T11:08:21;30.50;39.10
13591;DHT22;6866;50.778;7.206;2023-06-19T11:10:48;30.60;39.60
13591;DHT22;6866;50.778;7.206;2023-06-19T11:13:20;30.80;39.00
13591;DHT22;6866;50.778;7.206;2023-06-19T11:15:48;30.50;38.50
13591;DHT22;6866;50.778;7.206;2023-06-19T11:18:15;30.20;37.60
13591;DHT22;6866;50.778;7.206;2023-06-19T11:23:15;29.70;39.60
13591;DHT22;6866;50.778;7.206;2023-06-19T11:25:42;30.40;39.20
13591;DHT22;6866;50.778;7.206;2023-06-19T11:28:16;30.60;38.90
13591;DHT22;6866;50.778;7.206;2023-06-19T11:30:48;30.60;38.80
13591;DHT22;6866;50.778;7.206;2023-06-19T11:35:51;30.70;38.70
13591;DHT22;6866;50.778;7.206;2023-06-19T11:38:25;30.40;38.80
13591;DHT22;6866;50.778;7.206;2023-06-19T11:40:51;30.80;38.50
13591;DHT22;6866;50.778;7.206;2023-06-19T11:43:28;30.90;38.50
13591;DHT22;6866;50.778;7.206;2023-06-19T11:45:54;30.90;38.70
13591;DHT22;6866;50.778;7.206;2023-06-19T11:48:25;31.10;38.70
13591;DHT22;6866;50.778;7.206;2023-06-19T11:50:51;31.30;37.50
13591;DHT22;6866;50.778;7.206;2023-06-19T11:53:17;30.60;37.20
13591;DHT22;6866;50.778;7.206;2023-06-19T11:55:43;30.30;38.40
13591;DHT22;6866;50.778;7.206;2023-06-19T11:58:09;30.00;39.30
13591;DHT22;6866;50.778;7.206;2023-06-19T12:00:36;29.70;39.60
13591;DHT22;6866;50.778;7.206;2023-06-19T12:03:03;30.20;38.70
13591;DHT22;6866;50.778;7.206;2023-06-19T12:05:28;30.30;37.70
13591;DHT22;6866;50.778;7.206;2023-06-19T12:07:54;30.20;37.60
13591;DHT22;6866;50.778;7.206;2023-06-19T12:10:19;30.60;37.30
13591;DHT22;6866;50.778;7.206;2023-06-19T12:12:45;30.20;37.60
13591;DHT22;6866;50.778;7.206;2023-06-19T12:15:11;30.60;37.50
13591;DHT22;6866;50.778;7.206;2023-06-19T12:17:36;30.90;37.10
13591;DHT22;6866;50.778;7.206;2023-06-19T12:20:04;31.50;35.90
13591;DHT22;6866;50.778;7.206;2023-06-19T12:22:34;31.50;35.90
13591;DHT22;6866;50.778;7.206;2023-06-19T12:25:00;31.80;35.30
13591;DHT22;6866;50.778;7.206;2023-06-19T12:27:26;31.90;35.40
13591;DHT22;6866;50.778;7.206;2023-06-19T12:29:51;31.90;34.80
13591;DHT22;6866;50.778;7.206;2023-06-19T12:32:17;31.90;34.90
13591;DHT22;6866;50.778;7.206;2023-06-19T12:34:42;31.90;35.20
13591;DHT22;6866;50.778;7.206;2023-06-19T12:37:13;31.50;35.30
13591;DHT22;6866;50.778;7.206;2023-06-19T12:39:40;31.70;35.40
13591;DHT22;6866;50.778;7.206;2023-06-19T12:42:07;31.70;35.50
13591;DHT22;6866;50.778;7.206;2023-06-19T12:44:33;31.50;35.30
13591;DHT22;6866;50.778;7.206;2023-06-19T12:46:58;31.20;35.60
13591;DHT22;6866;50.778;7.206;2023-06-19T12:49:25;31.40;36.20
13591;DHT22;6866;50.778;7.206;2023-06-19T12:51:51;31.50;35.70
13591;DHT22;6866;50.778;7.206;2023-06-19T12:54:17;31.60;35.80
13591;DHT22;6866;50.778;7.206;2023-06-19T12:56:43;31.80;35.50
13591;DHT22;6866;50.778;7.206;2023-06-19T12:59:09;31.50;34.60
13591;DHT22;6866;50.778;7.206;2023-06-19T13:01:35;30.80;35.80
13591;DHT22;6866;50.778;7.206;2023-06-19T13:04:01;30.90;36.20
13591;DHT22;6866;50.778;7.206;2023-06-19T13:06:26;31.20;36.30
13591;DHT22;6866;50.778;7.206;2023-06-19T13:08:52;31.40;36.00
13591;DHT22;6866;50.778;7.206;2023-06-19T13:11:17;31.10;34.90
13591;DHT22;6866;50.778;7.206;2023-06-19T13:13:43;31.50;35.80
13591;DHT22;6866;50.778;7.206;2023-06-19T13:16:08;31.80;35.00
13591;DHT22;6866;50.778;7.206;2023-06-19T13:18:35;31.80;35.10
13591;DHT22;6866;50.778;7.206;2023-06-19T13:21:00;31.60;35.00
13591;DHT22;6866;50.778;7.206;2023-06-19T13:23:26;31.60;35.20
13591;DHT22;6866;50.778;7.206;2023-06-19T13:25:52;31.30;34.60
13591;DHT22;6866;50.778;7.206;2023-06-19T13:28:17;31.00;34.50
13591;DHT22;6866;50.778;7.206;2023-06-19T13:30:43;31.00;35.80
13591;DHT22;6866;50.778;7.206;2023-06-19T13:33:08;31.50;34.80
13591;DHT22;6866;50.778;7.206;2023-06-19T13:35:34;31.60;34.60
13591;DHT22;6866;50.778;7.206;2023-06-19T13:38:00;31.30;35.30
13591;DHT22;6866;50.778;7.206;2023-06-19T13:40:26;31.00;34.30
13591;DHT22;6866;50.778;7.206;2023-06-19T13:42:52;31.50;34.70
13591;DHT22;6866;50.778;7.206;2023-06-19T13:45:17;31.50;34.60
13591;DHT22;6866;50.778;7.206;2023-06-19T13:47:43;31.20;34.50
13591;DHT22;6866;50.778;7.206;2023-06-19T13:50:09;31.30;34.50
13591;DHT22;6866;50.778;7.206;2023-06-19T13:52:34;31.60;34.60
13591;DHT22;6866;50.778;7.206;2023-06-19T13:55:01;31.50;34.60
13591;DHT22;6866;50.778;7.206;2023-06-19T13:57:27;31.10;34.10
13591;DHT22;6866;50.778;7.206;2023-06-19T13:59:53;30.90;34.80
13591;DHT22;6866;50.778;7.206;2023-06-19T14:02:18;31.00;34.70
13591;DHT22;6866;50.778;7.206;2023-06-19T14:04:44;31.20;34.70
13591;DHT22;6866;50.778;7.206;2023-06-19T14:07:09;31.60;35.20
13591;DHT22;6866;50.778;7.206;2023-06-19T14:09:35;31.60;34.20
13591;DHT22;6866;50.778;7.206;2023-06-19T14:12:01;31.60;33.90
13591;DHT22;6866;50.778;7.206;2023-06-19T14:14:26;31.30;33.60
13591;DHT22;6866;50.778;7.206;2023-06-19T14:16:52;31.00;33.10
13591;DHT22;6866;50.778;7.206;2023-06-19T14:19:17;30.70;35.50
13591;DHT22;6866;50.778;7.206;2023-06-19T14:21:43;31.00;34.30
13591;DHT22;6866;50.778;7.206;2023-06-19T14:24:08;31.30;33.90
13591;DHT22;6866;50.778;7.206;2023-06-19T14:26:34;31.40;34.00
13591;DHT22;6866;50.778;7.206;2023-06-19T14:28:59;30.90;33.50
13591;DHT22;6866;50.778;7.206;2023-06-19T14:31:25;30.90;34.30
13591;DHT22;6866;50.778;7.206;2023-06-19T14:33:51;31.30;34.40
13591;DHT22;6866;50.778;7.206;2023-06-19T14:36:16;31.30;34.30
13591;DHT22;6866;50.778;7.206;2023-06-19T14:38:42;31.30;34.00
13591;DHT22;6866;50.778;7.206;2023-06-19T14:41:07;31.50;34.10
13591;DHT22;6866;50.778;7.206;2023-06-19T14:43:33;31.50;33.40
13591;DHT22;6866;50.778;7.206;2023-06-19T14:46:01;31.40;33.40
13591;DHT22;6866;50.778;7.206;2023-06-19T14:48:26;31.00;33.90
13591;DHT22;6866;50.778;7.206;2023-06-19T14:50:55;31.30;33.50
13591;DHT22;6866;50.778;7.206;2023-06-19T14:53:21;31.40;33.20
13591;DHT22;6866;50.778;7.206;2023-06-19T14:55:46;31.50;33.10
13591;DHT22;6866;50.778;7.206;2023-06-19T14:58:13;31.00;32.90
13591;DHT22;6866;50.778;7.206;2023-06-19T15:00:40;31.10;33.60
13591;DHT22;6866;50.778;7.206;2023-06-19T15:03:06;31.50;33.90
13591;DHT22;6866;50.778;7.206;2023-06-19T15:05:32;31.60;33.30
13591;DHT22;6866;50.778;7.206;2023-06-19T15:07:58;31.30;32.90
13591;DHT22;6866;50.778;7.206;2023-06-19T15:10:24;31.00;33.40
13591;DHT22;6866;50.778;7.206;2023-06-19T15:12:49;30.90;33.60
13591;DHT22;6866;50.778;7.206;2023-06-19T15:15:15;30.80;33.90
13591;DHT22;6866;50.778;7.206;2023-06-19T15:17:41;30.70;34.40
13591;DHT22;6866;50.778;7.206;2023-06-19T15:20:07;30.40;35.00
13591;DHT22;6866;50.778;7.206;2023-06-19T15:22:34;30.30;35.00
13591;DHT22;6866;50.778;7.206;2023-06-19T15:24:59;30.30;36.00
13591;DHT22;6866;50.778;7.206;2023-06-19T15:27:25;30.20;34.70
13591;DHT22;6866;50.778;7.206;2023-06-19T15:29:50;30.20;34.90
13591;DHT22;6866;50.778;7.206;2023-06-19T15:32:16;30.00;35.30
13591;DHT22;6866;50.778;7.206;2023-06-19T15:34:41;29.90;36.00
13591;DHT22;6866;50.778;7.206;2023-06-19T15:37:07;29.90;36.40
13591;DHT22;6866;50.778;7.206;2023-06-19T15:39:32;29.70;36.00
13591;DHT22;6866;50.778;7.206;2023-06-19T15:41:58;29.70;36.40
13591;DHT22;6866;50.778;7.206;2023-06-19T15:44:23;29.60;37.00
13591;DHT22;6866;50.778;7.206;2023-06-19T15:46:49;29.70;36.30
13591;DHT22;6866;50.778;7.206;2023-06-19T15:49:14;29.70;36.50